Time,TemperatureF,DewpointF,PressureIn,WindDirection,WindDirectionDegrees,WindSpeedMPH,WindSpeedGustMPH,Humidity,HourlyPrecipIn,Conditions,Clouds,dailyrainin,SolarRadiationWatts/m^2,SoftwareType,DateUTC
2013-05-08 00:01:00,54.2,52.8,29.99,NNW,327,9.2,9.2,95,0.00,RA,,0.00,0.0,WeatherDisplay:10.37,2013-05-08 04:01:00,
2013-05-08 00:06:00,54.2,52.8,29.99,NNW,333,10.4,10.4,95,0.00,RA,,0.00,0.0,WeatherDisplay:10.37,2013-05-08 04:06:00,
2013-05-08 00:11:00,54.2,52.8,29.99,NNW,332,5.8,5.8,95,0.00,CLR,,0.00,0.0,WeatherDisplay:10.37,2013-05-08 04:11:00,
2013-05-08 00:16:00,54.2,52.8,29.99,NNW,332,3.5,3.5,95,0.00,CLR,,0.00,0.0,WeatherDisplay:10.37,2013-05-08 04:16:00,
2013-05-08 00:21:00,54.3,52.9,29.99,NNW,331,3.5,3.5,95,0.00,CLR,,0.00,0.0,WeatherDisplay:10.37,2013-05-08 04:21:00,
2013-05-08 00:26:00,54.3,52.9,29.99,NNW,331,0.0,0.0,95,0.00,CLR,,0.00,0.0,WeatherDisplay:10.37,2013-05-08 04:26:00,
2013-05-08 00:31:00,54.3,52.9,29.99,NNW,331,0.0,0.0,95,0.00,CLR,,0.00,0.0,WeatherDisplay:10.37,2013-05-08 04:31:00,
2013-05-08 00:36:00,54.3,52.9,29.99,NNW,331,0.0,0.0,95,0.00,CLR,,0.00,0.0,WeatherDisplay:10.37,2013-05-08 04:36:00,
2013-05-08 00:41:00,54.2,52.5,30.00,NNW,331,0.0,0.0,94,0.00,CLR,,0.00,0.0,WeatherDisplay:10.37,2013-05-08 04:41:00,
2013-05-08 00:46:00,54.0,52.3,29.99,NNW,331,2.0,2.0,94,0.00,CLR,,0.00,0.0,WeatherDisplay:10.37,2013-05-08 04:46:00,
2013-05-08 00:51:00,54.0,52.6,29.99,NNW,330,3.5,3.5,95,0.00,CLR,,0.00,0.0,WeatherDisplay:10.37,2013-05-08 04:51:00,
2013-05-08 00:56:00,53.9,52.5,29.99,NW,325,4.6,4.6,95,0.00,CLR,,0.00,0.0,WeatherDisplay:10.37,2013-05-08 04:56:00,
2013-05-08 01:01:00,53.9,52.5,30.00,NW,318,4.6,4.6,95,0.00,CLR,,0.00,0.0,WeatherDisplay:10.37,2013-05-08 05:01:00,
2013-05-08 01:06:00,53.9,52.5,29.99,NW,317,5.8,5.8,95,0.00,CLR,,0.00,0.0,WeatherDisplay:10.37,2013-05-08 05:06:00,
2013-05-08 01:11:00,54.0,52.6,30.00,NW,317,5.8,5.8,95,0.00,CLR,,0.00,0.0,WeatherDisplay:10.37,2013-05-08 05:11:00,
2013-05-08 01:16:00,53.9,52.5,29.99,NW,315,3.5,3.5,95,0.00,CLR,,0.00,0.0,WeatherDisplay:10.37,2013-05-08 05:16:00,
2013-05-08 01:21:00,53.9,52.5,29.99,NW,315,0.0,0.0,95,0.00,CLR,,0.00,0.0,WeatherDisplay:10.37,2013-05-08 05:21:00,
2013-05-08 01:26:00,53.7,52.3,29.99,NW,315,0.0,0.0,95,0.00,CLR,,0.00,0.0,WeatherDisplay:10.37,2013-05-08 05:26:00,
2013-05-08 01:31:00,53.6,52.2,29.99,NW,315,0.0,0.0,95,0.00,CLR,,0.00,0.0,WeatherDisplay:10.37,2013-05-08 05:31:00,
2013-05-08 01:36:00,53.6,52.2,29.99,NW,315,0.0,0.0,95,0.00,CLR,,0.00,0.0,WeatherDisplay:10.37,2013-05-08 05:36:00,
2013-05-08 01:41:00,53.7,52.3,29.99,NW,315,3.5,0.0,95,0.00,CLR,,0.00,0.0,WeatherDisplay:10.37,2013-05-08 05:41:00,
2013-05-08 01:46:00,53.7,52.3,29.98,NW,315,4.0,4.0,95,0.00,CLR,,0.00,0.0,WeatherDisplay:10.37,2013-05-08 05:46:00,
2013-05-08 01:51:00,53.7,52.3,29.98,NW,316,6.9,6.9,95,0.00,CLR,,0.00,0.0,WeatherDisplay:10.37,2013-05-08 05:51:00,
2013-05-08 01:56:00,53.7,52.3,29.98,NW,316,5.8,5.8,95,0.00,CLR,,0.00,0.0,WeatherDisplay:10.37,2013-05-08 05:56:00,
2013-05-08 02:01:00,53.9,52.5,29.98,NW,316,3.5,3.5,95,0.00,CLR,,0.00,0.0,WeatherDisplay:10.37,2013-05-08 06:01:00,
2013-05-08 02:06:00,54.1,52.7,29.98,NW,316,4.0,4.0,95,0.00,CLR,,0.00,0.0,WeatherDisplay:10.37,2013-05-08 06:06:00,
2013-05-08 02:12:00,54.3,52.6,29.98,NW,316,2.3,2.6,94,0.00,CLR,,0.00,0.0,WeatherDisplay:10.37,2013-05-08 06:12:00,
2013-05-08 02:17:00,54.4,52.7,29.97,NW,316,5.8,5.8,94,0.00,CLR,,0.00,0.0,WeatherDisplay:10.37,2013-05-08 06:17:00,
2013-05-08 02:22:00,54.2,52.2,29.98,NW,316,3.5,3.5,93,0.00,CLR,,0.00,0.0,WeatherDisplay:10.37,2013-05-08 06:22:00,
2013-05-08 02:27:00,54.2,52.2,29.98,NW,316,5.8,5.8,93,0.00,CLR,,0.00,0.0,WeatherDisplay:10.37,2013-05-08 06:27:00,
2013-05-08 02:32:00,54.1,52.1,29.97,NW,316,3.5,3.5,93,0.00,CLR,,0.00,0.0,WeatherDisplay:10.37,2013-05-08 06:32:00,
2013-05-08 02:37:00,54.3,52.6,29.97,NW,316,3.5,3.5,94,0.00,CLR,,0.00,0.0,WeatherDisplay:10.37,2013-05-08 06:37:00,
2013-05-08 02:42:00,54.2,52.2,29.97,NW,316,3.5,0.0,93,0.00,CLR,,0.00,0.0,WeatherDisplay:10.37,2013-05-08 06:42:00,
2013-05-08 02:47:00,54.1,52.1,29.97,NW,316,4.0,4.0,93,0.00,CLR,,0.00,0.0,WeatherDisplay:10.37,2013-05-08 06:47:00,
2013-05-08 02:52:00,54.0,52.0,29.96,NW,316,3.5,3.5,93,0.00,CLR,,0.00,0.0,WeatherDisplay:10.37,2013-05-08 06:52:00,
2013-05-08 02:57:00,53.9,52.2,29.96,NW,317,5.8,5.8,94,0.00,CLR,,0.00,0.0,WeatherDisplay:10.37,2013-05-08 06:57:00,
2013-05-08 03:02:00,54.0,52.0,29.96,NW,317,3.5,0.0,93,0.00,CLR,,0.00,0.0,WeatherDisplay:10.37,2013-05-08 07:02:00,
2013-05-08 03:07:00,54.0,52.0,29.96,NW,318,5.0,5.0,93,0.00,CLR,,0.00,0.0,WeatherDisplay:10.37,2013-05-08 07:07:00,
2013-05-08 03:12:00,54.1,52.1,29.96,NNW,334,5.8,5.8,93,0.00,CLR,,0.00,0.0,WeatherDisplay:10.37,2013-05-08 07:12:00,
2013-05-08 03:17:00,54.1,52.1,29.96,NNW,334,0.0,0.0,93,0.00,CLR,,0.00,0.0,WeatherDisplay:10.37,2013-05-08 07:17:00,
2013-05-08 03:22:00,54.2,51.9,29.96,NNW,334,0.0,0.0,92,0.00,CLR,,0.00,0.0,WeatherDisplay:10.37,2013-05-08 07:22:00,
2013-05-08 03:27:00,54.1,51.8,29.96,NNW,333,3.5,3.5,92,0.00,CLR,,0.00,0.0,WeatherDisplay:10.37,2013-05-08 07:27:00,
2013-05-08 03:32:00,53.9,51.9,29.96,SSW,209,12.0,12.0,93,0.00,CLR,,0.00,0.0,WeatherDisplay:10.37,2013-05-08 07:32:00,
2013-05-08 03:37:00,53.8,51.8,29.96,SW,214,6.9,6.9,93,0.00,CLR,,0.00,0.0,WeatherDisplay:10.37,2013-05-08 07:37:00,
2013-05-08 03:42:00,53.8,52.1,29.97,SSW,213,5.0,5.0,94,0.00,CLR,,0.00,0.0,WeatherDisplay:10.37,2013-05-08 07:42:00,
2013-05-08 03:47:00,53.6,51.9,29.97,SSW,212,3.5,3.5,94,0.00,CLR,,0.00,0.0,WeatherDisplay:10.37,2013-05-08 07:47:00,
2013-05-08 03:52:00,53.5,51.8,29.97,SSW,212,3.5,3.5,94,0.00,CLR,,0.00,0.0,WeatherDisplay:10.37,2013-05-08 07:52:00,
2013-05-08 03:57:00,53.3,51.6,29.97,SSW,212,0.0,0.0,94,0.00,CLR,,0.00,0.0,WeatherDisplay:10.37,2013-05-08 07:57:00,
2013-05-08 04:02:00,53.2,51.8,29.97,SSW,212,0.0,0.0,95,0.00,CLR,,0.00,0.0,WeatherDisplay:10.37,2013-05-08 08:02:00,
2013-05-08 04:07:00,53.2,51.8,29.97,SSW,212,0.0,0.0,95,0.00,CLR,,0.00,0.0,WeatherDisplay:10.37,2013-05-08 08:07:00,
2013-05-08 04:12:00,53.2,51.8,29.97,SSW,212,4.6,4.6,95,0.00,CLR,,0.00,0.0,WeatherDisplay:10.37,2013-05-08 08:12:00,
2013-05-08 04:17:00,53.0,51.6,29.98,SSW,212,3.5,3.5,95,0.00,CLR,,0.00,0.0,WeatherDisplay:10.37,2013-05-08 08:17:00,
2013-05-08 04:22:00,52.6,51.2,29.98,SSW,213,4.6,4.6,95,0.00,CLR,,0.00,0.0,WeatherDisplay:10.37,2013-05-08 08:22:00,
2013-05-08 04:27:00,52.6,51.2,29.98,SSW,213,3.5,3.5,95,0.00,CLR,,0.00,0.0,WeatherDisplay:10.37,2013-05-08 08:27:00,
2013-05-08 04:32:00,52.6,51.2,29.98,SSW,213,0.0,0.0,95,0.00,CLR,,0.00,0.0,WeatherDisplay:10.37,2013-05-08 08:32:00,
2013-05-08 04:37:00,52.7,51.6,29.98,SSW,213,0.0,0.0,96,0.00,CLR,,0.00,0.0,WeatherDisplay:10.37,2013-05-08 08:37:00,
2013-05-08 04:42:00,52.7,51.6,29.98,SSW,213,0.0,0.0,96,0.00,CLR,,0.00,0.0,WeatherDisplay:10.37,2013-05-08 08:42:00,
2013-05-08 04:47:00,52.6,51.2,29.98,SSW,213,0.0,0.0,95,0.00,CLR,,0.00,0.0,WeatherDisplay:10.37,2013-05-08 08:47:00,
2013-05-08 04:52:00,52.8,51.7,29.98,SW,214,3.5,3.5,96,0.00,CLR,,0.00,0.0,WeatherDisplay:10.37,2013-05-08 08:52:00,
2013-05-08 04:57:00,52.7,51.3,29.98,SW,214,0.0,0.0,95,0.00,CLR,,0.00,0.0,WeatherDisplay:10.37,2013-05-08 08:57:00,
2013-05-08 05:02:00,52.7,51.6,29.98,SW,214,0.0,0.0,96,0.00,CLR,,0.00,0.0,WeatherDisplay:10.37,2013-05-08 09:02:00,
2013-05-08 05:07:00,52.9,51.8,29.98,SW,214,0.0,0.0,96,0.00,CLR,,0.00,0.0,WeatherDisplay:10.37,2013-05-08 09:07:00,
2013-05-08 05:12:00,53.0,51.9,29.98,SW,214,0.0,0.0,96,0.00,CLR,,0.00,0.0,WeatherDisplay:10.37,2013-05-08 09:12:00,
2013-05-08 05:17:00,53.1,52.0,29.99,SW,214,0.0,0.0,96,0.00,CLR,,0.00,0.0,WeatherDisplay:10.37,2013-05-08 09:17:00,
2013-05-08 05:22:00,53.1,52.0,29.99,SW,214,0.0,0.0,96,0.00,CLR,,0.00,0.0,WeatherDisplay:10.37,2013-05-08 09:22:00,
2013-05-08 05:27:00,53.1,51.7,29.99,SW,214,3.5,3.5,95,0.00,CLR,,0.00,0.0,WeatherDisplay:10.37,2013-05-08 09:27:00,
2013-05-08 05:32:00,53.3,52.2,29.99,SW,214,4.0,4.0,96,0.00,CLR,,0.00,0.0,WeatherDisplay:10.37,2013-05-08 09:32:00,
2013-05-08 05:37:00,53.5,52.4,29.99,WNW,298,3.5,3.5,96,0.00,CLR,,0.00,0.0,WeatherDisplay:10.37,2013-05-08 09:37:00,
2013-05-08 05:42:00,53.6,52.2,29.99,WNW,298,0.0,0.0,95,0.00,CLR,,0.00,0.0,WeatherDisplay:10.37,2013-05-08 09:42:00,
2013-05-08 05:47:00,53.7,52.3,29.99,WNW,298,4.6,4.6,95,0.00,CLR,,0.00,0.0,WeatherDisplay:10.37,2013-05-08 09:47:00,
2013-05-08 05:52:00,53.9,52.2,29.99,WNW,298,0.0,0.0,94,0.00,CLR,,0.00,0.0,WeatherDisplay:10.37,2013-05-08 09:52:00,
2013-05-08 05:57:00,53.9,52.2,29.99,WNW,297,3.5,3.5,94,0.00,CLR,,0.00,0.0,WeatherDisplay:10.37,2013-05-08 09:57:00,
2013-05-08 06:02:00,54.0,52.3,30.00,WNW,297,0.0,0.0,94,0.00,CLR,,0.00,0.0,WeatherDisplay:10.37,2013-05-08 10:02:00,
2013-05-08 06:07:00,53.5,51.5,30.00,WNW,297,0.0,0.0,93,0.00,CLR,,0.00,0.0,WeatherDisplay:10.37,2013-05-08 10:07:00,
2013-05-08 06:12:00,53.2,51.2,30.00,WNW,297,0.0,0.0,93,0.00,CLR,,0.00,0.0,WeatherDisplay:10.37,2013-05-08 10:12:00,
2013-05-08 06:17:00,53.0,51.3,30.00,WNW,297,0.0,0.0,94,0.00,CLR,,0.00,0.0,WeatherDisplay:10.37,2013-05-08 10:17:00,
2013-05-08 06:22:00,52.9,51.2,30.00,WNW,297,3.5,3.5,94,0.00,CLR,,0.00,0.0,WeatherDisplay:10.37,2013-05-08 10:22:00,
2013-05-08 06:27:00,52.9,51.5,30.00,WNW,297,4.6,4.6,95,0.00,CLR,,0.00,0.0,WeatherDisplay:10.37,2013-05-08 10:27:00,
2013-05-08 06:32:00,52.8,51.4,30.00,WNW,297,0.0,0.0,95,0.00,CLR,,0.00,0.0,WeatherDisplay:10.37,2013-05-08 10:32:00,
2013-05-08 06:37:00,52.7,51.3,30.01,WNW,297,0.0,0.0,95,0.00,CLR,,0.00,0.0,WeatherDisplay:10.37,2013-05-08 10:37:00,
2013-05-08 06:42:00,52.4,51.0,30.01,WNW,297,0.0,0.0,95,0.00,CLR,,0.00,0.0,WeatherDisplay:10.37,2013-05-08 10:42:00,
2013-05-08 06:47:00,52.4,51.0,30.01,WNW,297,3.5,3.5,95,0.00,CLR,,0.00,0.0,WeatherDisplay:10.37,2013-05-08 10:47:00,
2013-05-08 06:52:00,52.4,51.0,30.01,WNW,297,0.0,0.0,95,0.00,CLR,,0.00,5.0,WeatherDisplay:10.37,2013-05-08 10:52:00,
2013-05-08 06:57:00,52.0,50.6,30.01,WNW,297,3.5,3.5,95,0.00,CLR,,0.00,5.0,WeatherDisplay:10.37,2013-05-08 10:57:00,
2013-05-08 07:02:00,51.9,50.5,30.02,WNW,297,3.5,3.5,95,0.00,CLR,,0.00,7.0,WeatherDisplay:10.37,2013-05-08 11:02:00,
2013-05-08 07:07:00,51.8,50.4,30.02,WNW,297,0.0,0.0,95,0.00,CLR,,0.00,9.0,WeatherDisplay:10.37,2013-05-08 11:07:00,
2013-05-08 07:12:00,51.9,50.8,30.02,WNW,297,3.5,3.5,96,0.00,CLR,,0.00,11.0,WeatherDisplay:10.37,2013-05-08 11:12:00,
2013-05-08 07:17:00,51.7,50.3,30.02,WNW,297,0.0,0.0,95,0.00,CLR,,0.00,16.0,WeatherDisplay:10.37,2013-05-08 11:17:00,
2013-05-08 07:22:00,51.5,50.1,30.02,WNW,297,0.0,0.0,95,0.00,CLR,,0.00,19.0,WeatherDisplay:10.37,2013-05-08 11:22:00,
2013-05-08 07:27:00,51.3,49.9,30.03,WNW,297,0.0,0.0,95,0.00,CLR,,0.00,23.0,WeatherDisplay:10.37,2013-05-08 11:27:00,
2013-05-08 07:32:00,51.0,49.6,30.03,WNW,297,0.0,0.0,95,0.00,CLR,,0.00,21.0,WeatherDisplay:10.37,2013-05-08 11:32:00,
2013-05-08 07:37:00,50.8,49.4,30.03,WNW,297,0.0,0.0,95,0.00,CLR,,0.00,21.0,WeatherDisplay:10.37,2013-05-08 11:37:00,
2013-05-08 07:42:00,50.8,49.7,30.03,WNW,297,0.0,0.0,96,0.00,CLR,,0.00,25.0,WeatherDisplay:10.37,2013-05-08 11:42:00,
2013-05-08 07:47:00,50.8,49.7,30.03,WNW,297,0.0,0.0,96,0.00,CLR,,0.00,30.0,WeatherDisplay:10.37,2013-05-08 11:47:00,
2013-05-08 07:52:00,50.8,49.7,30.03,WNW,297,0.0,0.0,96,0.00,CLR,,0.00,42.0,WeatherDisplay:10.37,2013-05-08 11:52:00,
2013-05-08 07:57:00,50.8,49.7,30.03,WNW,297,0.0,0.0,96,0.00,CLR,,0.00,60.0,WeatherDisplay:10.37,2013-05-08 11:57:00,
2013-05-08 08:02:00,50.8,50.0,30.03,WNW,297,0.0,0.0,97,0.00,OVC,,0.00,79.0,WeatherDisplay:10.37,2013-05-08 12:02:00,
2013-05-08 08:07:00,51.1,50.3,30.04,WNW,297,0.0,0.0,97,0.00,OVC,,0.00,63.0,WeatherDisplay:10.37,2013-05-08 12:07:00,
2013-05-08 08:12:00,51.4,50.6,30.04,WNW,297,0.0,0.0,97,0.00,OVC,,0.00,255.0,WeatherDisplay:10.37,2013-05-08 12:12:00,
2013-05-08 08:17:00,51.9,51.1,30.04,WNW,297,0.0,0.0,97,0.00,OVC,,0.00,272.0,WeatherDisplay:10.37,2013-05-08 12:17:00,
2013-05-08 08:22:00,52.5,52.0,30.04,WNW,297,0.0,0.0,98,0.00,OVC,,0.00,285.0,WeatherDisplay:10.37,2013-05-08 12:22:00,
2013-05-08 08:27:00,53.1,52.6,30.05,WNW,297,5.0,5.1,98,0.00,OVC,,0.00,290.0,WeatherDisplay:10.37,2013-05-08 12:27:00,
2013-05-08 08:32:00,53.3,52.8,30.05,WNW,291,5.8,5.8,98,0.00,OVC,,0.00,302.0,WeatherDisplay:10.37,2013-05-08 12:32:00,
2013-05-08 08:37:00,53.6,53.0,30.05,WNW,290,5.0,5.0,98,0.00,OVC,,0.00,327.0,WeatherDisplay:10.37,2013-05-08 12:37:00,
2013-05-08 08:42:00,54.1,53.5,30.05,WNW,290,4.6,4.6,98,0.00,OVC,,0.00,359.0,WeatherDisplay:10.37,2013-05-08 12:42:00,
2013-05-08 08:47:00,54.5,53.9,30.05,WNW,290,3.5,3.5,98,0.00,OVC,,0.00,376.0,WeatherDisplay:10.37,2013-05-08 12:47:00,
2013-05-08 08:52:00,55.0,54.2,30.05,WNW,290,2.3,0.0,97,0.00,OVC,,0.00,394.0,WeatherDisplay:10.37,2013-05-08 12:52:00,
2013-05-08 08:57:00,55.5,54.7,30.05,WNW,290,0.0,0.0,97,0.00,OVC,,0.00,410.0,WeatherDisplay:10.37,2013-05-08 12:57:00,
2013-05-08 09:02:00,56.2,55.4,30.06,WNW,290,3.5,3.5,97,0.00,OVC,,0.00,454.0,WeatherDisplay:10.37,2013-05-08 13:02:00,
2013-05-08 09:07:00,56.9,56.1,30.06,WNW,290,3.5,3.5,97,0.00,OVC,,0.00,492.0,WeatherDisplay:10.37,2013-05-08 13:07:00,
2013-05-08 09:12:00,57.7,56.9,30.05,WNW,288,5.8,5.8,97,0.00,OVC,,0.00,554.0,WeatherDisplay:10.37,2013-05-08 13:12:00,
2013-05-08 09:17:00,58.7,57.0,30.06,West,280,4.0,4.0,94,0.00,OVC,,0.00,557.0,WeatherDisplay:10.37,2013-05-08 13:17:00,
2013-05-08 09:23:00,59.6,57.0,30.05,WNW,293,6.9,6.9,91,0.00,OVC,,0.00,599.0,WeatherDisplay:10.37,2013-05-08 13:23:00,
2013-05-08 09:28:00,60.5,57.2,30.06,WNW,294,12.7,12.7,89,0.00,OVC,,0.00,642.0,WeatherDisplay:10.37,2013-05-08 13:28:00,
2013-05-08 09:33:00,61.2,58.2,30.06,NW,305,6.9,6.9,90,0.00,OVC,,0.00,687.0,WeatherDisplay:10.37,2013-05-08 13:33:00,
2013-05-08 09:38:00,61.7,57.8,30.06,WNW,298,5.8,5.8,87,0.00,OVC,,0.00,745.0,WeatherDisplay:10.37,2013-05-08 13:38:00,
2013-05-08 09:43:00,62.1,57.2,30.06,WNW,297,6.9,6.9,84,0.00,OVC,,0.00,798.0,WeatherDisplay:10.37,2013-05-08 13:43:00,
2013-05-08 09:48:00,62.2,57.6,30.06,West,280,11.5,11.5,85,0.00,OVC,,0.00,809.0,WeatherDisplay:10.37,2013-05-08 13:48:00,
2013-05-08 09:53:00,62.1,57.2,30.06,West,275,11.5,11.5,84,0.00,OVC,,0.00,759.0,WeatherDisplay:10.37,2013-05-08 13:53:00,
2013-05-08 09:58:00,61.9,57.0,30.06,WNW,303,4.6,4.6,84,0.00,OVC,,0.00,348.0,WeatherDisplay:10.37,2013-05-08 13:58:00,
2013-05-08 10:03:00,62.0,56.8,30.06,WNW,296,5.8,5.8,83,0.00,OVC,,0.00,403.0,WeatherDisplay:10.37,2013-05-08 14:03:00,
2013-05-08 10:08:00,62.2,57.0,30.06,WNW,300,4.6,4.6,83,0.00,OVC,,0.00,443.0,WeatherDisplay:10.37,2013-05-08 14:08:00,
2013-05-08 10:13:00,62.5,57.9,30.06,WNW,288,8.0,8.0,85,0.00,OVC,,0.00,471.0,WeatherDisplay:10.37,2013-05-08 14:13:00,
2013-05-08 10:18:00,62.7,57.5,30.06,WNW,290,7.0,7.0,83,0.00,OVC,,0.00,508.0,WeatherDisplay:10.37,2013-05-08 14:18:00,
2013-05-08 10:23:00,62.8,57.2,30.06,WNW,292,5.8,5.8,82,0.00,OVC,,0.00,367.0,WeatherDisplay:10.37,2013-05-08 14:23:00,
2013-05-08 10:28:00,62.9,57.3,30.06,WNW,296,3.5,3.5,82,0.00,OVC,,0.00,357.0,WeatherDisplay:10.37,2013-05-08 14:28:00,
2013-05-08 10:33:00,63.0,57.4,30.06,WNW,296,5.0,5.0,82,0.00,OVC,,0.00,378.0,WeatherDisplay:10.37,2013-05-08 14:33:00,
2013-05-08 10:38:00,63.2,57.3,30.06,West,281,11.5,11.5,81,0.00,OVC,,0.00,397.0,WeatherDisplay:10.37,2013-05-08 14:38:00,
2013-05-08 10:43:00,63.4,57.8,30.06,WNW,292,9.2,9.2,82,0.00,OVC,,0.00,401.0,WeatherDisplay:10.37,2013-05-08 14:43:00,
2013-05-08 10:48:00,63.4,57.5,30.06,WNW,294,9.2,9.2,81,0.00,OVC,,0.00,371.0,WeatherDisplay:10.37,2013-05-08 14:48:00,
2013-05-08 10:53:00,63.6,57.7,30.07,West,271,13.8,13.8,81,0.00,OVC,,0.00,348.0,WeatherDisplay:10.37,2013-05-08 14:53:00,
2013-05-08 10:58:00,63.5,56.9,30.06,NNW,336,11.5,11.5,79,0.00,OVC,,0.00,341.0,WeatherDisplay:10.37,2013-05-08 14:58:00,
2013-05-08 11:03:00,63.6,58.3,30.06,West,269,9.2,9.2,83,0.00,OVC,,0.00,343.0,WeatherDisplay:10.37,2013-05-08 15:03:00,
2013-05-08 11:08:00,63.7,57.1,30.06,NW,317,11.5,11.5,79,0.00,OVC,,0.00,341.0,WeatherDisplay:10.37,2013-05-08 15:08:00,
2013-05-08 11:13:00,63.9,58.0,30.07,NW,306,10.4,10.4,81,0.00,OVC,,0.00,352.0,WeatherDisplay:10.37,2013-05-08 15:13:00,
2013-05-08 11:18:00,64.0,58.1,30.06,West,266,9.2,9.2,81,0.00,OVC,,0.00,262.0,WeatherDisplay:10.37,2013-05-08 15:18:00,
2013-05-08 11:23:00,63.9,58.0,30.07,West,261,10.4,10.4,81,0.00,OVC,,0.00,272.0,WeatherDisplay:10.37,2013-05-08 15:23:00,
2013-05-08 11:28:00,63.6,57.3,30.06,WNW,284,11.0,11.0,80,0.00,OVC,,0.00,267.0,WeatherDisplay:10.37,2013-05-08 15:28:00,
2013-05-08 11:33:00,63.4,57.1,30.06,WNW,285,11.5,11.5,80,0.00,OVC,,0.00,260.0,WeatherDisplay:10.37,2013-05-08 15:33:00,
2013-05-08 11:38:00,63.6,57.3,30.06,West,267,11.5,11.5,80,0.00,OVC,,0.00,427.0,WeatherDisplay:10.37,2013-05-08 15:38:00,
2013-05-08 11:43:00,63.9,57.3,30.06,NNW,327,9.2,9.2,79,0.00,CLR,,0.00,276.0,WeatherDisplay:10.37,2013-05-08 15:43:00,
2013-05-08 11:48:00,64.3,56.9,30.06,WNW,303,6.0,6.0,77,0.00,CLR,,0.00,264.0,WeatherDisplay:10.37,2013-05-08 15:48:00,
2013-05-08 11:53:00,65.1,58.1,30.06,West,267,10.4,10.4,78,0.00,CLR,,0.00,912.0,WeatherDisplay:10.37,2013-05-08 15:53:00,
2013-05-08 11:58:00,65.9,57.7,30.06,NW,307,4.6,4.6,75,0.00,CLR,,0.00,956.0,WeatherDisplay:10.37,2013-05-08 15:58:00,
2013-05-08 12:03:00,66.4,58.6,30.06,SW,235,12.7,12.7,76,0.00,CLR,,0.00,984.0,WeatherDisplay:10.37,2013-05-08 16:03:00,
2013-05-08 12:08:00,66.9,57.2,30.06,NW,311,17.3,17.3,71,0.00,CLR,,0.00,997.0,WeatherDisplay:10.37,2013-05-08 16:08:00,
2013-05-08 12:13:00,67.4,59.2,30.07,NW,304,10.4,10.4,75,0.00,CLR,,0.00,1037.0,WeatherDisplay:10.37,2013-05-08 16:13:00,
2013-05-08 12:18:00,67.7,56.8,30.06,WNW,282,13.0,13.0,68,0.00,CLR,,0.00,1000.0,WeatherDisplay:10.37,2013-05-08 16:18:00,
2013-05-08 12:23:00,67.4,56.5,30.06,West,274,13.8,13.8,68,0.00,CLR,,0.00,786.0,WeatherDisplay:10.37,2013-05-08 16:23:00,
2013-05-08 12:28:00,67.3,57.2,30.06,WNW,294,10.4,10.4,70,0.00,CLR,,0.00,835.0,WeatherDisplay:10.37,2013-05-08 16:28:00,
2013-05-08 12:33:00,67.6,57.5,30.06,North,355,9.2,9.2,70,0.00,CLR,,0.00,1035.0,WeatherDisplay:10.37,2013-05-08 16:33:00,
2013-05-08 12:38:00,67.8,56.4,30.06,NNW,345,15.0,15.0,67,0.00,CLR,,0.00,963.0,WeatherDisplay:10.37,2013-05-08 16:38:00,
2013-05-08 12:43:00,67.9,55.7,30.06,NNW,335,17.3,17.3,65,0.00,CLR,,0.00,791.0,WeatherDisplay:10.37,2013-05-08 16:43:00,
2013-05-08 12:48:00,67.7,56.8,30.06,WNW,290,6.9,6.9,68,0.00,CLR,,0.00,1000.0,WeatherDisplay:10.37,2013-05-08 16:48:00,
2013-05-08 12:53:00,67.9,56.9,30.06,NW,306,11.5,11.5,68,0.00,CLR,,0.00,823.0,WeatherDisplay:10.37,2013-05-08 16:53:00,
2013-05-08 12:58:00,68.2,56.0,30.06,North,355,12.0,12.0,65,0.00,CLR,,0.00,933.0,WeatherDisplay:10.37,2013-05-08 16:58:00,
2013-05-08 13:03:00,68.2,56.0,30.06,NW,317,11.5,11.5,65,0.00,CLR,,0.00,1099.0,WeatherDisplay:10.37,2013-05-08 17:03:00,
2013-05-08 13:09:00,68.6,57.6,30.05,WNW,294,5.8,5.8,68,0.00,CLR,,0.00,1041.0,WeatherDisplay:10.37,2013-05-08 17:09:00,
2013-05-08 13:14:00,68.9,54.9,30.05,WNW,295,18.4,18.4,61,0.00,CLR,,0.00,798.0,WeatherDisplay:10.37,2013-05-08 17:14:00,
2013-05-08 13:19:00,69.0,56.3,30.05,NW,323,11.5,11.5,64,0.00,CLR,,0.00,865.0,WeatherDisplay:10.37,2013-05-08 17:19:00,
2013-05-08 13:24:00,69.0,56.7,30.05,WNW,292,11.5,11.5,65,0.00,CLR,,0.00,998.0,WeatherDisplay:10.37,2013-05-08 17:24:00,
2013-05-08 13:29:00,69.5,56.8,30.05,NW,315,11.5,11.5,64,0.00,CLR,,0.00,1051.0,WeatherDisplay:10.37,2013-05-08 17:29:00,
2013-05-08 13:34:00,69.9,57.6,30.04,NW,306,6.9,6.9,65,0.00,CLR,,0.00,1083.0,WeatherDisplay:10.37,2013-05-08 17:34:00,
2013-05-08 13:39:00,70.4,57.6,30.04,NNW,338,9.2,9.2,64,0.00,CLR,,0.00,1183.0,WeatherDisplay:10.37,2013-05-08 17:39:00,
2013-05-08 13:44:00,70.5,58.2,30.04,West,279,12.7,12.7,65,0.00,CLR,,0.00,1255.0,WeatherDisplay:10.37,2013-05-08 17:44:00,
2013-05-08 13:49:00,70.3,58.4,30.04,WNW,296,16.1,16.1,66,0.00,CLR,,0.00,1281.0,WeatherDisplay:10.37,2013-05-08 17:49:00,
2013-05-08 13:54:00,70.3,60.1,30.04,West,275,12.7,12.7,70,0.00,CLR,,0.00,327.0,WeatherDisplay:10.37,2013-05-08 17:54:00,
2013-05-08 13:59:00,69.9,58.0,30.05,WNW,300,18.4,18.4,66,0.00,FEW,,0.00,350.0,WeatherDisplay:10.37,2013-05-08 17:59:00,
2013-05-08 14:04:00,69.0,56.3,30.04,WNW,300,13.8,13.8,64,0.00,SCT,,0.00,283.0,WeatherDisplay:10.37,2013-05-08 18:04:00,
2013-05-08 14:09:00,68.4,57.8,30.04,NW,304,5.8,5.8,69,0.00,SCT,,0.00,316.0,WeatherDisplay:10.37,2013-05-08 18:09:00,
2013-05-08 14:14:00,68.3,57.7,30.04,NW,304,11.5,11.5,69,0.00,FEW,,0.00,397.0,WeatherDisplay:10.37,2013-05-08 18:14:00,
2013-05-08 14:19:00,68.4,58.2,30.04,West,270,13.8,13.8,70,0.00,FEW,,0.00,394.0,WeatherDisplay:10.37,2013-05-08 18:19:00,
2013-05-08 14:24:00,68.4,58.6,30.04,West,272,6.0,6.0,71,0.00,SCT,,0.00,352.0,WeatherDisplay:10.37,2013-05-08 18:24:00,
2013-05-08 14:29:00,68.2,56.8,30.04,WNW,297,16.1,16.1,67,0.00,SCT,,0.00,313.0,WeatherDisplay:10.37,2013-05-08 18:29:00,
2013-05-08 14:34:00,68.1,57.1,30.04,WNW,292,12.7,12.7,68,0.00,SCT,,0.00,309.0,WeatherDisplay:10.37,2013-05-08 18:34:00,
2013-05-08 14:39:00,68.1,57.1,30.05,West,281,11.5,11.5,68,0.00,SCT,,0.00,301.0,WeatherDisplay:10.37,2013-05-08 18:39:00,
2013-05-08 14:44:00,68.1,57.5,30.04,WNW,291,8.1,8.1,69,0.00,SCT,,0.00,378.0,WeatherDisplay:10.37,2013-05-08 18:44:00,
2013-05-08 14:49:00,68.4,57.8,30.05,West,281,16.1,16.1,69,0.00,FEW,,0.00,468.0,WeatherDisplay:10.37,2013-05-08 18:49:00,
2013-05-08 14:54:00,68.7,59.3,30.04,WNW,283,9.2,9.2,72,0.00,FEW,,0.00,485.0,WeatherDisplay:10.37,2013-05-08 18:54:00,
2013-05-08 14:59:00,69.4,58.0,30.04,WNW,290,6.9,6.9,67,0.00,SCT,,0.00,366.0,WeatherDisplay:10.37,2013-05-08 18:59:00,
2013-05-08 15:04:00,69.4,58.0,30.04,WNW,291,5.0,5.0,67,0.00,BKN,,0.00,295.0,WeatherDisplay:10.37,2013-05-08 19:04:00,
2013-05-08 15:09:00,69.3,58.3,30.04,NW,321,10.4,10.4,68,0.00,BKN,,0.00,269.0,WeatherDisplay:10.37,2013-05-08 19:09:00,
2013-05-08 15:14:00,69.1,57.3,30.04,NW,306,11.5,11.5,66,0.00,BKN,,0.00,294.0,WeatherDisplay:10.37,2013-05-08 19:14:00,
2013-05-08 15:19:00,68.9,57.1,30.04,West,273,13.8,13.8,66,0.00,SCT,,0.00,380.0,WeatherDisplay:10.37,2013-05-08 19:19:00,
2013-05-08 15:24:00,68.9,57.1,30.04,West,275,10.4,10.4,66,0.00,SCT,,0.00,492.0,WeatherDisplay:10.37,2013-05-08 19:24:00,
2013-05-08 15:29:00,69.3,57.9,30.03,WNW,288,9.2,9.2,67,0.00,SCT,,0.00,424.0,WeatherDisplay:10.37,2013-05-08 19:29:00,
2013-05-08 15:34:00,69.6,56.9,30.03,WNW,296,12.7,12.7,64,0.00,BKN,,0.00,392.0,WeatherDisplay:10.37,2013-05-08 19:34:00,
2013-05-08 15:39:00,70.1,58.6,30.03,West,278,16.1,16.1,67,0.00,BKN,,0.00,380.0,WeatherDisplay:10.37,2013-05-08 19:39:00,
2013-05-08 15:44:00,70.7,56.6,30.03,WNW,283,18.4,18.4,61,0.00,BKN,,0.00,202.0,WeatherDisplay:10.37,2013-05-08 19:44:00,
2013-05-08 15:49:00,70.8,56.7,30.03,West,281,17.0,17.0,61,0.00,CLR,,0.00,935.0,WeatherDisplay:10.37,2013-05-08 19:49:00,
2013-05-08 15:54:00,71.5,58.7,30.03,WSW,245,11.5,11.5,64,0.00,CLR,,0.00,939.0,WeatherDisplay:10.37,2013-05-08 19:54:00,
2013-05-08 15:59:00,71.9,58.6,30.03,WNW,297,11.5,11.5,63,0.00,CLR,,0.00,1056.0,WeatherDisplay:10.37,2013-05-08 19:59:00,
2013-05-08 16:04:00,71.5,57.3,30.03,WNW,298,15.0,15.0,61,0.00,BKN,,0.00,229.0,WeatherDisplay:10.37,2013-05-08 20:04:00,
2013-05-08 16:09:00,70.7,57.5,30.03,WNW,295,13.0,13.0,63,0.00,BKN,,0.00,223.0,WeatherDisplay:10.37,2013-05-08 20:09:00,
2013-05-08 16:14:00,69.9,57.6,30.03,West,277,17.3,17.3,65,0.00,BKN,,0.00,251.0,WeatherDisplay:10.37,2013-05-08 20:14:00,
2013-05-08 16:19:00,69.3,57.0,30.03,WNW,297,13.8,13.8,65,0.00,BKN,,0.00,274.0,WeatherDisplay:10.37,2013-05-08 20:19:00,
2013-05-08 16:24:00,69.1,57.7,30.03,West,277,6.0,6.0,67,0.00,BKN,,0.00,308.0,WeatherDisplay:10.37,2013-05-08 20:24:00,
2013-05-08 16:29:00,69.2,59.0,30.03,WNW,300,11.5,11.5,70,0.00,BKN,,0.00,309.0,WeatherDisplay:10.37,2013-05-08 20:29:00,
2013-05-08 16:34:00,69.3,57.9,30.02,WNW,298,11.5,11.5,67,0.00,BKN,,0.00,294.0,WeatherDisplay:10.37,2013-05-08 20:34:00,
2013-05-08 16:39:00,69.3,57.5,30.02,West,280,6.9,6.9,66,0.00,BKN,,0.00,253.0,WeatherDisplay:10.37,2013-05-08 20:39:00,
2013-05-08 16:44:00,69.1,56.8,30.03,West,280,15.0,15.0,65,0.00,BKN,,0.00,299.0,WeatherDisplay:10.37,2013-05-08 20:44:00,
2013-05-08 16:49:00,69.1,56.4,30.02,NNW,335,11.5,11.5,64,0.00,BKN,,0.00,306.0,WeatherDisplay:10.37,2013-05-08 20:49:00,
2013-05-08 16:54:00,69.2,56.5,30.02,NW,319,8.1,8.1,64,0.00,BKN,,0.00,443.0,WeatherDisplay:10.37,2013-05-08 20:54:00,
2013-05-08 16:59:00,69.6,56.9,30.02,West,265,19.6,19.6,64,0.00,BKN,,0.00,381.0,WeatherDisplay:10.37,2013-05-08 20:59:00,
2013-05-08 17:04:00,69.9,57.6,30.02,North,355,16.1,16.1,65,0.00,BKN,,0.00,376.0,WeatherDisplay:10.37,2013-05-08 21:04:00,
2013-05-08 17:09:00,70.0,57.3,30.02,West,277,17.3,17.3,64,0.00,SCT,,0.00,670.0,WeatherDisplay:10.37,2013-05-08 21:09:00,
2013-05-08 17:14:00,70.0,57.3,30.02,WNW,283,19.6,19.6,64,0.00,BKN,,0.00,230.0,WeatherDisplay:10.37,2013-05-08 21:14:00,
2013-05-08 17:19:00,70.1,56.9,30.02,WNW,284,15.0,15.0,63,0.00,SCT,,0.00,668.0,WeatherDisplay:10.37,2013-05-08 21:19:00,
2013-05-08 17:24:00,70.5,56.9,30.02,NNW,340,15.0,15.0,62,0.00,BKN,,0.00,232.0,WeatherDisplay:10.37,2013-05-08 21:24:00,
2013-05-08 17:29:00,70.5,57.7,30.02,WNW,290,13.8,13.8,64,0.00,SCT,,0.00,624.0,WeatherDisplay:10.37,2013-05-08 21:29:00,
2013-05-08 17:34:00,70.8,58.4,30.02,West,269,19.6,19.6,65,0.00,SCT,,0.00,566.0,WeatherDisplay:10.37,2013-05-08 21:34:00,
2013-05-08 17:39:00,70.7,57.5,30.02,West,269,16.1,16.1,63,0.00,BKN,,0.00,543.0,WeatherDisplay:10.37,2013-05-08 21:39:00,
2013-05-08 17:44:00,70.6,56.9,30.02,WNW,301,18.4,18.4,62,0.00,BKN,,0.00,527.0,WeatherDisplay:10.37,2013-05-08 21:44:00,
2013-05-08 17:49:00,70.5,56.9,30.02,WSW,256,13.8,13.8,62,0.00,BKN,,0.00,513.0,WeatherDisplay:10.37,2013-05-08 21:49:00,
2013-05-08 17:54:00,70.4,56.8,30.01,West,268,11.5,11.5,62,0.00,BKN,,0.00,490.0,WeatherDisplay:10.37,2013-05-08 21:54:00,
2013-05-08 17:59:00,70.4,57.6,30.01,WNW,298,15.0,15.0,64,0.00,BKN,,0.00,494.0,WeatherDisplay:10.37,2013-05-08 21:59:00,
2013-05-08 18:04:00,70.7,57.9,30.02,WNW,296,11.5,11.5,64,0.00,BKN,,0.00,520.0,WeatherDisplay:10.37,2013-05-08 22:04:00,
2013-05-08 18:09:00,71.0,59.1,30.02,NW,307,7.0,7.0,66,0.00,BKN,,0.00,515.0,WeatherDisplay:10.37,2013-05-08 22:09:00,
2013-05-08 18:14:00,70.9,57.2,30.02,NW,306,17.3,17.3,62,0.00,BKN,,0.00,545.0,WeatherDisplay:10.37,2013-05-08 22:14:00,
2013-05-08 18:19:00,70.8,58.4,30.02,West,260,12.7,12.7,65,0.00,BKN,,0.00,197.0,WeatherDisplay:10.37,2013-05-08 22:19:00,
2013-05-08 18:24:00,70.2,57.9,30.02,West,271,10.4,10.4,65,0.00,BKN,,0.00,309.0,WeatherDisplay:10.37,2013-05-08 22:24:00,
2013-05-08 18:29:00,70.2,58.3,30.02,WNW,284,10.4,10.4,66,0.00,BKN,,0.00,487.0,WeatherDisplay:10.37,2013-05-08 22:29:00,
2013-05-08 18:34:00,70.6,58.3,30.02,WNW,286,8.1,8.1,65,0.00,BKN,,0.00,473.0,WeatherDisplay:10.37,2013-05-08 22:34:00,
2013-05-08 18:39:00,71.0,59.1,30.02,West,279,11.5,11.5,66,0.00,BKN,,0.00,450.0,WeatherDisplay:10.37,2013-05-08 22:39:00,
2013-05-08 18:44:00,71.1,58.3,30.02,WNW,291,12.7,12.7,64,0.00,BKN,,0.00,388.0,WeatherDisplay:10.37,2013-05-08 22:44:00,
2013-05-08 18:49:00,70.8,57.6,30.02,West,269,16.1,16.1,63,0.00,BKN,,0.00,362.0,WeatherDisplay:10.37,2013-05-08 22:49:00,
2013-05-08 18:54:00,70.4,57.2,30.02,West,265,19.6,19.6,63,0.00,BKN,,0.00,316.0,WeatherDisplay:10.37,2013-05-08 22:54:00,
2013-05-08 18:59:00,70.3,57.5,30.02,WNW,284,10.4,10.4,64,0.00,BKN,,0.00,269.0,WeatherDisplay:10.37,2013-05-08 22:59:00,
2013-05-08 19:04:00,70.3,58.0,30.02,WNW,296,5.8,5.8,65,0.00,BKN,,0.00,246.0,WeatherDisplay:10.37,2013-05-08 23:04:00,
2013-05-08 19:09:00,70.3,58.0,30.02,West,279,11.5,11.5,65,0.00,BKN,,0.00,221.0,WeatherDisplay:10.37,2013-05-08 23:09:00,
2013-05-08 19:14:00,70.1,58.6,30.02,WNW,297,13.8,13.8,67,0.00,BKN,,0.00,200.0,WeatherDisplay:10.37,2013-05-08 23:14:00,
2013-05-08 19:19:00,69.7,57.8,30.02,NW,306,10.4,10.4,66,0.00,BKN,,0.00,185.0,WeatherDisplay:10.37,2013-05-08 23:19:00,
2013-05-08 19:24:00,69.4,58.0,30.02,WNW,288,9.2,9.2,67,0.00,BKN,,0.00,163.0,WeatherDisplay:10.37,2013-05-08 23:24:00,
2013-05-08 19:29:00,69.2,57.8,30.02,West,276,10.4,10.4,67,0.00,BKN,,0.00,144.0,WeatherDisplay:10.37,2013-05-08 23:29:00,
2013-05-08 19:34:00,69.0,58.0,30.02,West,278,9.2,9.2,68,0.00,BKN,,0.00,128.0,WeatherDisplay:10.37,2013-05-08 23:34:00,
2013-05-08 19:39:00,68.8,57.8,30.02,WNW,291,9.2,9.2,68,0.00,BKN,,0.00,109.0,WeatherDisplay:10.37,2013-05-08 23:39:00,
2013-05-08 19:44:00,68.6,58.0,30.02,WNW,296,9.2,9.2,69,0.00,BKN,,0.00,97.0,WeatherDisplay:10.37,2013-05-08 23:44:00,
2013-05-08 19:49:00,68.5,57.9,30.03,WNW,294,6.9,6.9,69,0.00,BKN,,0.00,77.0,WeatherDisplay:10.37,2013-05-08 23:49:00,
2013-05-08 19:54:00,68.3,58.1,30.03,WNW,294,5.0,5.0,70,0.00,CLR,,0.00,35.0,WeatherDisplay:10.37,2013-05-08 23:54:00,
2013-05-08 19:59:00,67.9,57.8,30.03,WNW,294,5.8,5.8,70,0.00,CLR,,0.00,19.0,WeatherDisplay:10.37,2013-05-08 23:59:00,
2013-05-08 20:04:00,67.6,57.9,30.04,WNW,294,6.9,6.9,71,0.00,CLR,,0.00,14.0,WeatherDisplay:10.37,2013-05-09 00:04:00,
2013-05-08 20:09:00,67.2,57.9,30.04,WNW,293,9.2,9.2,72,0.00,CLR,,0.00,14.0,WeatherDisplay:10.37,2013-05-09 00:09:00,
2013-05-08 20:14:00,66.7,57.8,30.04,WNW,294,8.1,8.1,73,0.00,CLR,,0.00,11.0,WeatherDisplay:10.37,2013-05-09 00:14:00,
2013-05-08 20:19:00,66.3,57.8,30.04,WNW,294,4.6,4.6,74,0.00,CLR,,0.00,9.0,WeatherDisplay:10.37,2013-05-09 00:19:00,
2013-05-08 20:25:00,66.1,57.6,30.04,WNW,294,4.0,4.0,74,0.00,CLR,,0.00,5.0,WeatherDisplay:10.37,2013-05-09 00:25:00,
2013-05-08 20:30:00,65.9,57.4,30.04,WNW,294,3.5,3.5,74,0.00,CLR,,0.00,0.0,WeatherDisplay:10.37,2013-05-09 00:30:00,
2013-05-08 20:35:00,65.7,57.6,30.04,WNW,294,0.0,0.0,75,0.00,CLR,,0.00,0.0,WeatherDisplay:10.37,2013-05-09 00:35:00,
2013-05-08 20:40:00,65.4,57.3,30.05,WNW,294,4.6,4.6,75,0.00,CLR,,0.00,0.0,WeatherDisplay:10.37,2013-05-09 00:40:00,
2013-05-08 20:45:00,65.2,57.4,30.04,WNW,294,3.5,3.5,76,0.00,CLR,,0.00,0.0,WeatherDisplay:10.37,2013-05-09 00:45:00,
2013-05-08 20:50:00,65.0,57.2,30.05,WNW,294,3.5,3.5,76,0.00,CLR,,0.00,0.0,WeatherDisplay:10.37,2013-05-09 00:50:00,
2013-05-08 20:55:00,64.8,57.4,30.05,WNW,294,3.0,3.0,77,0.00,CLR,,0.00,0.0,WeatherDisplay:10.37,2013-05-09 00:55:00,
2013-05-08 21:00:00,64.6,57.6,30.05,WNW,294,0.0,0.0,78,0.00,CLR,,0.00,0.0,WeatherDisplay:10.37,2013-05-09 01:00:00,
2013-05-08 21:05:00,64.3,57.3,30.05,WNW,294,3.5,3.5,78,0.00,CLR,,0.00,0.0,WeatherDisplay:10.37,2013-05-09 01:05:00,
2013-05-08 21:10:00,64.0,57.4,30.05,WNW,294,0.0,0.0,79,0.00,CLR,,0.00,0.0,WeatherDisplay:10.37,2013-05-09 01:10:00,
2013-05-08 21:15:00,63.7,57.4,30.05,WNW,294,0.0,0.0,80,0.00,CLR,,0.00,0.0,WeatherDisplay:10.37,2013-05-09 01:15:00,
2013-05-08 21:20:00,63.4,57.1,30.05,WNW,294,0.0,0.0,80,0.00,CLR,,0.00,0.0,WeatherDisplay:10.37,2013-05-09 01:20:00,
2013-05-08 21:25:00,63.2,57.3,30.05,WNW,294,0.0,0.0,81,0.00,CLR,,0.00,0.0,WeatherDisplay:10.37,2013-05-09 01:25:00,
2013-05-08 21:30:00,62.9,57.3,30.05,WNW,294,3.5,3.5,82,0.00,CLR,,0.00,0.0,WeatherDisplay:10.37,2013-05-09 01:30:00,
2013-05-08 21:35:00,62.6,57.0,30.05,WNW,294,0.0,0.0,82,0.00,CLR,,0.00,0.0,WeatherDisplay:10.37,2013-05-09 01:35:00,
2013-05-08 21:40:00,62.4,56.8,30.06,WNW,294,2.0,2.0,82,0.00,CLR,,0.00,0.0,WeatherDisplay:10.37,2013-05-09 01:40:00,
2013-05-08 21:45:00,62.3,57.1,30.06,WNW,294,0.0,0.0,83,0.00,CLR,,0.00,0.0,WeatherDisplay:10.37,2013-05-09 01:45:00,
2013-05-08 21:50:00,62.1,56.9,30.05,WNW,294,0.0,0.0,83,0.00,CLR,,0.00,0.0,WeatherDisplay:10.37,2013-05-09 01:50:00,
2013-05-08 21:55:00,61.9,56.7,30.06,WNW,294,0.0,0.0,83,0.00,CLR,,0.00,0.0,WeatherDisplay:10.37,2013-05-09 01:55:00,
2013-05-08 22:00:00,61.8,56.6,30.06,WNW,294,0.0,0.0,83,0.00,CLR,,0.00,0.0,WeatherDisplay:10.37,2013-05-09 02:00:00,
2013-05-08 22:05:00,61.6,56.7,30.06,WNW,294,0.0,0.0,84,0.00,CLR,,0.00,0.0,WeatherDisplay:10.37,2013-05-09 02:05:00,
2013-05-08 22:10:00,61.5,56.6,30.06,WNW,294,0.0,0.0,84,0.00,CLR,,0.00,0.0,WeatherDisplay:10.37,2013-05-09 02:10:00,
2013-05-08 22:15:00,61.3,56.4,30.07,WNW,294,0.0,0.0,84,0.00,CLR,,0.00,0.0,WeatherDisplay:10.37,2013-05-09 02:15:00,
2013-05-08 22:20:00,61.2,56.7,30.07,WNW,294,0.0,0.0,85,0.00,CLR,,0.00,0.0,WeatherDisplay:10.37,2013-05-09 02:20:00,
2013-05-08 22:25:00,61.0,56.5,30.07,WNW,294,0.0,0.0,85,0.00,CLR,,0.00,0.0,WeatherDisplay:10.37,2013-05-09 02:25:00,
2013-05-08 22:30:00,60.9,56.4,30.07,WNW,294,0.0,0.0,85,0.00,CLR,,0.00,0.0,WeatherDisplay:10.37,2013-05-09 02:30:00,
2013-05-08 22:35:00,60.6,56.4,30.07,WNW,294,0.0,0.0,86,0.00,CLR,,0.00,0.0,WeatherDisplay:10.37,2013-05-09 02:35:00,
2013-05-08 22:40:00,60.5,56.3,30.08,WNW,294,1.2,1.2,86,0.00,CLR,,0.00,0.0,WeatherDisplay:10.37,2013-05-09 02:40:00,
2013-05-08 22:45:00,60.4,56.2,30.08,WNW,294,0.0,0.0,86,0.00,CLR,,0.00,0.0,WeatherDisplay:10.37,2013-05-09 02:45:00,
2013-05-08 22:50:00,60.1,56.2,30.08,WNW,294,1.2,1.2,87,0.00,CLR,,0.00,0.0,WeatherDisplay:10.37,2013-05-09 02:50:00,
2013-05-08 22:55:00,59.8,55.9,30.08,WNW,294,3.5,3.5,87,0.00,CLR,,0.00,0.0,WeatherDisplay:10.37,2013-05-09 02:55:00,
2013-05-08 23:00:00,59.8,55.9,30.08,WNW,294,3.0,3.0,87,0.00,CLR,,0.00,0.0,WeatherDisplay:10.37,2013-05-09 03:00:00,
2013-05-08 23:05:00,59.7,56.1,30.08,WNW,294,0.0,0.0,88,0.00,CLR,,0.00,0.0,WeatherDisplay:10.37,2013-05-09 03:05:00,
2013-05-08 23:10:00,59.7,56.1,30.08,WNW,294,0.0,0.0,88,0.00,CLR,,0.00,0.0,WeatherDisplay:10.37,2013-05-09 03:10:00,
2013-05-08 23:15:00,59.7,56.1,30.08,WNW,294,0.0,0.0,88,0.00,CLR,,0.00,0.0,WeatherDisplay:10.37,2013-05-09 03:15:00,
2013-05-08 23:20:00,59.6,56.0,30.08,WNW,294,0.0,0.0,88,0.00,CLR,,0.00,0.0,WeatherDisplay:10.37,2013-05-09 03:20:00,
2013-05-08 23:25:00,59.5,55.9,30.08,WNW,294,0.0,0.0,88,0.00,CLR,,0.00,0.0,WeatherDisplay:10.37,2013-05-09 03:25:00,
2013-05-08 23:30:00,59.1,55.5,30.08,WNW,294,0.0,0.0,88,0.00,CLR,,0.00,0.0,WeatherDisplay:10.37,2013-05-09 03:30:00,
2013-05-08 23:35:00,58.9,55.7,30.08,WNW,294,0.0,0.0,89,0.00,CLR,,0.00,0.0,WeatherDisplay:10.37,2013-05-09 03:35:00,
2013-05-08 23:40:00,59.0,56.1,30.08,WNW,294,0.0,0.0,90,0.00,CLR,,0.00,0.0,WeatherDisplay:10.37,2013-05-09 03:40:00,
2013-05-08 23:45:00,59.0,56.1,30.08,WNW,294,0.0,0.0,90,0.00,CLR,,0.00,0.0,WeatherDisplay:10.37,2013-05-09 03:45:00,
2013-05-08 23:50:00,58.9,55.7,30.08,WNW,294,0.0,0.0,89,0.00,CLR,,0.00,0.0,WeatherDisplay:10.37,2013-05-09 03:50:00,
2013-05-08 23:55:00,58.9,55.7,30.08,WNW,294,3.5,3.5,89,0.00,CLR,,0.00,0.0,WeatherDisplay:10.37,2013-05-09 03:55:00,